createdAt,value
2024-01-15T00:00:59.246Z,99.90
2024-01-15T00:03:47.664Z,99.90
2024-01-15T00:06:34.849Z,99.60
2024-01-15T00:09:20.539Z,98.20
2024-01-15T00:12:06.432Z,96.00
2024-01-15T00:14:52.016Z,97.10
2024-01-15T00:17:37.670Z,98.10
2024-01-15T00:20:23.179Z,97.70
2024-01-15T00:23:09.067Z,97.60
2024-01-15T00:25:54.497Z,97.40
2024-01-15T00:28:40.327Z,98.50
2024-01-15T00:31:25.728Z,98.20
2024-01-15T00:34:11.594Z,98.50
2024-01-15T00:36:57.194Z,99.80
2024-01-15T00:39:43.544Z,99.90
2024-01-15T00:42:29.228Z,99.90
2024-01-15T00:45:14.855Z,99.90
2024-01-15T00:48:02.392Z,99.00
2024-01-15T00:50:48.350Z,98.40
2024-01-15T00:53:33.745Z,97.60
2024-01-15T00:56:19.112Z,96.60
2024-01-15T00:59:04.747Z,95.60
2024-01-15T01:01:50.547Z,92.80
2024-01-15T01:04:35.988Z,89.50
2024-01-15T01:07:21.544Z,85.50
2024-01-15T01:10:07.891Z,84.90
2024-01-15T01:12:53.548Z,83.70
2024-01-15T01:15:39.930Z,83.00
2024-01-15T01:18:26.277Z,82.50
2024-01-15T01:21:12.130Z,82.70
2024-01-15T01:23:57.812Z,82.60
2024-01-15T01:26:43.576Z,80.90
2024-01-15T01:29:28.868Z,81.20
2024-01-15T01:32:14.612Z,81.30
2024-01-15T01:35:00.422Z,78.10
2024-01-15T01:37:46.032Z,75.60
2024-01-15T01:40:31.763Z,76.20
2024-01-15T01:43:17.474Z,74.00
2024-01-15T01:46:04.361Z,71.70
2024-01-15T01:48:50.384Z,72.00
2024-01-15T01:51:38.869Z,72.20
2024-01-15T01:54:26.872Z,71.60
2024-01-15T01:57:13.459Z,72.80
2024-01-15T02:00:00.119Z,72.50
2024-01-15T02:02:46.556Z,73.40
2024-01-15T02:05:32.811Z,73.40
2024-01-15T02:08:18.503Z,73.80
2024-01-15T02:11:04.156Z,74.50
2024-01-15T02:13:49.702Z,74.60
2024-01-15T02:16:35.245Z,75.10
2024-01-15T02:19:21.283Z,74.10
2024-01-15T02:22:06.747Z,74.30
2024-01-15T02:24:52.485Z,74.00
2024-01-15T02:27:38.353Z,74.20
2024-01-15T02:30:26.731Z,74.50
2024-01-15T02:33:13.591Z,74.00
2024-01-15T02:35:59.684Z,74.10
2024-01-15T02:38:45.194Z,74.70
2024-01-15T02:41:30.855Z,74.50
2024-01-15T02:44:16.399Z,74.70
2024-01-15T02:47:01.995Z,74.80
2024-01-15T02:49:47.777Z,74.90
2024-01-15T02:52:33.472Z,74.60
2024-01-15T02:55:18.999Z,74.50
2024-01-15T02:58:05.007Z,74.40
2024-01-15T03:00:50.507Z,75.20
2024-01-15T03:03:36.446Z,75.80
2024-01-15T03:06:22.113Z,75.60
2024-01-15T03:09:08.025Z,76.00
2024-01-15T03:11:53.486Z,75.70
2024-01-15T03:14:39.013Z,75.60
2024-01-15T03:17:24.979Z,75.30
2024-01-15T03:20:11.137Z,75.40
2024-01-15T03:22:56.651Z,75.20
2024-01-15T03:25:41.911Z,75.10
2024-01-15T03:28:27.708Z,75.50
2024-01-15T03:31:13.508Z,74.90
2024-01-15T03:33:59.096Z,74.50
2024-01-15T03:36:44.830Z,74.70
2024-01-15T03:39:30.538Z,74.80
2024-01-15T03:42:15.984Z,75.00
2024-01-15T03:45:01.636Z,75.00
2024-01-15T03:47:47.334Z,74.60
2024-01-15T03:50:32.952Z,74.60
2024-01-15T03:53:18.310Z,77.10
2024-01-15T03:56:04.651Z,75.70
2024-01-15T03:58:50.202Z,75.70
2024-01-15T04:01:35.747Z,75.80
2024-01-15T04:04:21.640Z,75.60
2024-01-15T04:07:07.271Z,76.10
2024-01-15T04:09:52.953Z,76.20
2024-01-15T04:12:39.134Z,76.70
2024-01-15T04:15:24.690Z,77.90
2024-01-15T04:18:10.204Z,77.50
2024-01-15T04:20:55.868Z,77.50
2024-01-15T04:23:41.261Z,76.80
2024-01-15T04:26:26.947Z,78.30
2024-01-15T04:29:13.200Z,79.10
2024-01-15T04:31:58.727Z,78.90
2024-01-15T04:34:44.683Z,78.40
2024-01-15T04:37:30.097Z,78.10
2024-01-15T04:40:15.991Z,77.40
2024-01-15T04:43:01.321Z,76.90
2024-01-15T04:45:46.965Z,77.20
2024-01-15T04:48:32.555Z,76.80
2024-01-15T04:51:18.167Z,76.60
2024-01-15T04:54:03.966Z,76.70
2024-01-15T04:56:49.345Z,76.90
2024-01-15T04:59:35.077Z,76.80
2024-01-15T05:02:20.781Z,77.30
2024-01-15T05:05:06.454Z,77.90
2024-01-15T05:07:51.752Z,77.40
2024-01-15T05:10:37.293Z,77.40
2024-01-15T05:13:22.968Z,76.70
2024-01-15T05:16:09.016Z,77.30
2024-01-15T05:18:54.685Z,77.00
2024-01-15T05:21:40.258Z,77.40
2024-01-15T05:24:27.747Z,77.70
2024-01-15T05:27:13.526Z,77.80
2024-01-15T05:29:59.227Z,77.60
2024-01-15T05:32:44.715Z,78.10
2024-01-15T05:35:30.934Z,78.20
2024-01-15T05:38:19.760Z,78.60
2024-01-15T05:41:06.493Z,77.90
2024-01-15T05:43:58.194Z,77.80
2024-01-15T05:46:44.196Z,77.80
2024-01-15T05:49:29.788Z,77.70
2024-01-15T05:52:15.341Z,77.80
2024-01-15T05:55:01.243Z,77.40
2024-01-15T05:57:47.430Z,77.10
2024-01-15T06:00:34.482Z,77.00
2024-01-15T06:03:19.944Z,76.60
2024-01-15T06:06:05.858Z,77.00
2024-01-15T06:08:51.184Z,76.50
2024-01-15T06:11:37.086Z,76.40
2024-01-15T06:14:22.758Z,76.60
2024-01-15T06:17:08.532Z,76.70
2024-01-15T06:19:54.016Z,76.80
2024-01-15T06:22:40.419Z,76.80
2024-01-15T06:25:25.724Z,76.50
2024-01-15T06:28:11.276Z,76.30
2024-01-15T06:30:57.182Z,75.90
2024-01-15T06:33:42.931Z,75.80
2024-01-15T06:36:28.596Z,76.80
2024-01-15T06:39:14.392Z,76.10
2024-01-15T06:41:59.858Z,76.10
2024-01-15T06:44:45.618Z,76.00
2024-01-15T06:47:33.701Z,76.00
2024-01-15T06:50:19.452Z,75.80
2024-01-15T06:53:05.197Z,75.70
2024-01-15T06:55:52.476Z,75.80
2024-01-15T06:58:38.284Z,76.30
2024-01-15T07:01:24.060Z,76.40
2024-01-15T07:04:09.645Z,75.80
2024-01-15T07:06:55.320Z,76.10
2024-01-15T07:09:41.747Z,76.10
2024-01-15T07:12:27.099Z,76.30
2024-01-15T07:15:12.803Z,76.20
2024-01-15T07:17:58.540Z,75.90
2024-01-15T07:20:44.058Z,75.70
2024-01-15T07:23:31.364Z,75.40
2024-01-15T07:26:16.988Z,74.70
2024-01-15T07:29:02.746Z,74.90
2024-01-15T07:31:52.717Z,74.90
2024-01-15T07:34:38.628Z,74.80
2024-01-15T07:37:24.622Z,74.90
2024-01-15T07:40:12.038Z,73.90
2024-01-15T07:42:57.822Z,74.30
2024-01-15T07:45:45.804Z,74.00
2024-01-15T07:48:31.962Z,73.70
2024-01-15T07:51:17.420Z,72.80
2024-01-15T07:54:03.183Z,73.90
2024-01-15T07:57:00.116Z,73.40
2024-01-15T07:59:45.846Z,72.90
2024-01-15T08:02:35.562Z,72.90
2024-01-15T08:05:22.779Z,72.80
2024-01-15T08:08:08.117Z,72.00
2024-01-15T08:10:54.192Z,71.20
2024-01-15T08:13:39.812Z,70.80
2024-01-15T08:16:26.309Z,71.50
2024-01-15T08:19:12.295Z,70.40
2024-01-15T08:21:57.801Z,70.50
2024-01-15T08:24:43.217Z,69.90
2024-01-15T08:27:30.137Z,69.80
2024-01-15T08:30:15.815Z,69.10
2024-01-15T08:33:07.897Z,68.30
2024-01-15T08:35:57.114Z,67.40
2024-01-15T08:38:42.660Z,67.30
2024-01-15T08:41:28.527Z,67.40
2024-01-15T08:44:14.068Z,66.70
2024-01-15T08:46:59.628Z,66.30
2024-01-15T08:49:46.694Z,66.20
2024-01-15T08:52:32.219Z,65.80
2024-01-15T08:55:17.875Z,64.10
2024-01-15T08:58:04.436Z,64.80
2024-01-15T09:00:49.745Z,64.20
2024-01-15T09:03:35.993Z,64.00
2024-01-15T09:06:22.009Z,63.70
2024-01-15T09:09:07.653Z,63.50
2024-01-15T09:11:53.202Z,64.10
2024-01-15T09:14:38.600Z,63.90
2024-01-15T09:17:24.768Z,64.80
2024-01-15T09:20:11.185Z,64.60
2024-01-15T09:22:56.475Z,64.30
2024-01-15T09:25:42.347Z,63.70
2024-01-15T09:28:27.996Z,64.30
2024-01-15T09:31:13.610Z,64.80
2024-01-15T09:34:01.464Z,64.80
2024-01-15T09:36:47.601Z,64.80
2024-01-15T09:39:33.242Z,66.10
2024-01-15T09:42:21.058Z,65.10
2024-01-15T09:45:08.793Z,65.00
2024-01-15T09:47:54.796Z,64.30
2024-01-15T09:50:40.139Z,63.90
2024-01-15T09:53:26.931Z,64.00
2024-01-15T09:56:13.311Z,63.40
2024-01-15T09:58:59.406Z,62.30
2024-01-15T10:01:45.695Z,62.80
2024-01-15T10:04:31.334Z,63.10
2024-01-15T10:07:20.321Z,63.10
2024-01-15T10:10:06.908Z,61.90
2024-01-15T10:12:52.298Z,61.50
2024-01-15T10:15:39.763Z,61.50
2024-01-15T10:18:25.505Z,61.30
2024-01-15T10:21:11.172Z,61.60
2024-01-15T10:23:56.988Z,61.10
2024-01-15T10:26:42.540Z,60.90
2024-01-15T10:29:27.930Z,60.20
2024-01-15T10:32:13.604Z,60.10
2024-01-15T10:34:59.066Z,59.60
2024-01-15T10:37:44.536Z,60.00
2024-01-15T10:40:30.601Z,59.60
2024-01-15T10:43:16.308Z,60.00
2024-01-15T10:46:02.444Z,60.00
2024-01-15T10:48:48.131Z,58.10
2024-01-15T10:51:33.489Z,58.90
2024-01-15T10:54:20.463Z,59.00
2024-01-15T10:57:06.616Z,58.50
2024-01-15T10:59:52.216Z,58.80
2024-01-15T11:02:38.653Z,59.00
2024-01-15T11:05:24.627Z,58.60
2024-01-15T11:08:10.579Z,58.20
2024-01-15T11:10:56.597Z,57.80
2024-01-15T11:13:44.810Z,57.20
2024-01-15T11:17:02.933Z,57.90
2024-01-15T11:19:52.611Z,58.00
2024-01-15T11:22:49.808Z,56.90
2024-01-15T11:25:39.682Z,56.10
2024-01-15T11:28:50.162Z,56.90
2024-01-15T11:31:41.548Z,55.80
2024-01-15T11:35:05.016Z,55.60
2024-01-15T11:37:55.709Z,55.60
2024-01-15T11:40:43.685Z,55.70
2024-01-15T11:43:32.687Z,55.50
2024-01-15T11:46:19.684Z,55.50
2024-01-15T11:49:06.998Z,54.30
2024-01-15T11:51:55.594Z,55.00
2024-01-15T11:54:43.806Z,54.60
2024-01-15T11:57:44.500Z,54.60
2024-01-15T12:00:30.353Z,54.10
2024-01-15T12:03:15.926Z,54.30
2024-01-15T12:06:01.310Z,55.20
2024-01-15T12:08:46.933Z,55.50
2024-01-15T12:11:33.898Z,55.20
2024-01-15T12:14:19.213Z,53.30
2024-01-15T12:17:06.302Z,54.10
2024-01-15T12:19:56.930Z,54.90
2024-01-15T12:22:53.492Z,54.60
2024-01-15T12:25:48.186Z,54.70
2024-01-15T12:28:33.628Z,55.30
2024-01-15T12:31:20.532Z,55.60
2024-01-15T12:34:06.935Z,56.00
2024-01-15T12:36:52.683Z,55.70
2024-01-15T12:39:38.406Z,56.60
2024-01-15T12:42:24.040Z,56.40
2024-01-15T12:45:12.599Z,56.10
2024-01-15T12:47:59.046Z,56.00
2024-01-15T12:50:46.836Z,55.90
2024-01-15T12:53:32.420Z,55.70
2024-01-15T12:56:17.840Z,55.10
2024-01-15T12:59:03.413Z,54.80
2024-01-15T13:01:49.362Z,55.50
2024-01-15T13:04:34.681Z,52.30
2024-01-15T13:07:20.272Z,53.20
2024-01-15T13:10:06.898Z,53.20
2024-01-15T13:12:52.631Z,52.10
2024-01-15T13:15:38.131Z,50.60
2024-01-15T13:18:23.622Z,51.00
2024-01-15T13:21:09.314Z,50.50
2024-01-15T13:23:55.159Z,50.20
2024-01-15T13:26:41.914Z,50.30
2024-01-15T13:29:27.521Z,48.60
2024-01-15T13:32:18.732Z,50.10
2024-01-15T13:35:06.935Z,47.90
2024-01-15T13:37:54.276Z,48.30
2024-01-15T13:40:39.775Z,46.50
2024-01-15T13:43:25.480Z,46.20
2024-01-15T13:46:11.135Z,46.10
2024-01-15T13:48:56.903Z,46.00
2024-01-15T13:51:42.733Z,46.00
2024-01-15T13:54:38.019Z,45.80
2024-01-15T13:57:31.177Z,45.30
2024-01-15T14:00:19.864Z,43.70
2024-01-15T14:03:06.195Z,44.50
2024-01-15T14:05:52.200Z,43.90
2024-01-15T14:08:38.958Z,43.90
2024-01-15T14:11:24.534Z,41.80
2024-01-15T14:14:10.474Z,41.20
2024-01-15T14:16:55.746Z,42.10
2024-01-15T14:19:41.578Z,41.90
2024-01-15T14:22:27.362Z,40.90
2024-01-15T14:25:12.831Z,41.20
2024-01-15T14:27:58.660Z,40.70
2024-01-15T14:30:44.329Z,40.40
2024-01-15T14:33:30.140Z,38.50
2024-01-15T14:36:17.020Z,39.30
2024-01-15T14:39:02.390Z,39.00
2024-01-15T14:41:48.193Z,39.80
2024-01-15T14:44:36.128Z,39.60
2024-01-15T14:47:25.141Z,39.80
2024-01-15T14:50:11.573Z,38.50
2024-01-15T14:52:57.558Z,39.30
2024-01-15T14:55:42.797Z,38.00
2024-01-15T14:58:28.430Z,38.80
2024-01-15T15:01:14.549Z,38.90
2024-01-15T15:03:59.914Z,38.60
2024-01-15T15:06:45.702Z,38.30
2024-01-15T15:09:31.368Z,37.40
2024-01-15T15:12:16.980Z,38.00
2024-01-15T15:15:08.160Z,38.50
2024-01-15T15:17:55.871Z,38.20
2024-01-15T15:20:41.609Z,38.40
2024-01-15T15:23:27.069Z,37.90
2024-01-15T15:26:13.419Z,37.70
2024-01-15T15:28:58.800Z,37.80
2024-01-15T15:31:45.038Z,37.90
2024-01-15T15:34:30.790Z,37.90
2024-01-15T15:37:18.273Z,37.60
2024-01-15T15:40:04.837Z,37.40
2024-01-15T15:42:50.123Z,37.50
2024-01-15T15:45:35.874Z,37.30
2024-01-15T15:48:21.594Z,37.90
2024-01-15T15:51:07.136Z,38.20
2024-01-15T15:53:52.974Z,37.30
2024-01-15T15:56:41.121Z,36.50
2024-01-15T15:59:26.503Z,37.60
2024-01-15T16:02:11.991Z,38.20
2024-01-15T16:04:58.735Z,37.30
2024-01-15T16:07:44.290Z,37.30
2024-01-15T16:10:30.027Z,37.90
2024-01-15T16:13:15.558Z,37.40
2024-01-15T16:23:09.252Z,37.80
2024-01-15T16:23:23.706Z,38.10
2024-01-15T16:23:40.687Z,37.70
2024-01-15T16:25:19.143Z,37.10
2024-01-15T16:28:05.843Z,37.90
2024-01-15T16:30:55.591Z,37.00
2024-01-15T16:33:43.733Z,36.60
2024-01-15T16:36:30.837Z,37.10
2024-01-15T16:39:16.605Z,37.70
2024-01-15T16:42:02.119Z,36.60
2024-01-15T16:44:47.992Z,36.30
2024-01-15T16:47:33.431Z,37.30
2024-01-15T16:50:19.828Z,37.70
2024-01-15T16:53:05.498Z,37.70
2024-01-15T16:55:51.038Z,38.50
2024-01-15T16:58:36.696Z,37.60
2024-01-15T17:01:22.540Z,37.30
2024-01-15T17:04:08.026Z,37.60
2024-01-15T17:06:53.737Z,38.00
2024-01-15T17:09:39.362Z,37.60
2024-01-15T17:12:25.285Z,36.90
2024-01-15T17:15:11.125Z,38.10
2024-01-15T17:17:56.683Z,36.70
2024-01-15T17:20:45.422Z,37.70
2024-01-15T17:23:30.970Z,37.90
2024-01-15T17:26:16.567Z,38.30
2024-01-15T17:29:01.892Z,38.80
2024-01-15T17:31:47.807Z,37.50
2024-01-15T17:34:33.788Z,37.70
2024-01-15T17:37:20.129Z,37.50
2024-01-15T17:40:07.094Z,38.10
2024-01-15T17:42:52.644Z,37.50
2024-01-15T17:45:38.168Z,38.30
2024-01-15T17:48:24.476Z,38.20
2024-01-15T17:51:11.762Z,38.70
2024-01-15T17:53:58.229Z,38.40
2024-01-15T17:56:44.039Z,38.80
2024-01-15T17:59:29.685Z,38.00
2024-01-15T18:02:15.406Z,38.60
2024-01-15T18:05:00.925Z,39.10
2024-01-15T18:07:46.617Z,40.50
2024-01-15T18:10:32.214Z,39.60
2024-01-15T18:13:17.883Z,39.50
2024-01-15T18:16:04.494Z,40.00
2024-01-15T18:18:54.040Z,40.10
2024-01-15T18:21:39.783Z,39.60
2024-01-15T18:24:25.294Z,40.00
2024-01-15T18:27:11.029Z,40.10
2024-01-15T18:29:57.606Z,40.60
2024-01-15T18:32:43.111Z,41.00
2024-01-15T18:35:29.922Z,40.90
2024-01-15T18:38:15.575Z,41.00
2024-01-15T18:41:03.726Z,40.90
2024-01-15T18:43:49.146Z,41.30
2024-01-15T18:46:34.818Z,41.50
2024-01-15T18:49:22.164Z,41.70
2024-01-15T18:52:07.751Z,41.70
2024-01-15T18:54:53.413Z,41.60
2024-01-15T18:57:38.977Z,41.40
2024-01-15T19:00:25.458Z,41.50
2024-01-15T19:03:11.073Z,41.30
2024-01-15T19:05:56.377Z,41.60
2024-01-15T19:08:41.808Z,42.10
2024-01-15T19:11:27.687Z,41.80
2024-01-15T19:14:13.602Z,42.20
2024-01-15T19:17:02.030Z,42.50
2024-01-15T19:19:52.208Z,42.60
2024-01-15T19:22:37.600Z,42.80
2024-01-15T19:25:23.375Z,42.80
2024-01-15T19:28:08.710Z,43.10
2024-01-15T19:30:54.885Z,43.70
2024-01-15T19:33:43.404Z,43.70
2024-01-15T19:36:29.423Z,43.90
2024-01-15T19:39:14.985Z,43.80
2024-01-15T19:42:02.092Z,44.60
2024-01-15T19:44:47.858Z,44.50
2024-01-15T19:47:33.732Z,44.40
2024-01-15T19:50:19.625Z,44.20
2024-01-15T19:53:06.700Z,43.90
2024-01-15T19:55:52.395Z,45.00
2024-01-15T19:58:38.634Z,44.50
2024-01-15T20:01:27.005Z,46.40
2024-01-15T20:04:12.195Z,46.90
2024-01-15T20:06:57.807Z,46.40
2024-01-15T20:09:43.431Z,47.30
2024-01-15T20:12:29.227Z,47.20
2024-01-15T20:15:15.749Z,47.10
2024-01-15T20:18:01.563Z,47.10
2024-01-15T20:20:47.157Z,46.40
2024-01-15T20:23:35.396Z,47.10
2024-01-15T20:26:21.054Z,46.90
2024-01-15T20:29:06.680Z,47.30
2024-01-15T20:31:51.988Z,47.50
2024-01-15T20:34:37.691Z,47.70
2024-01-15T20:37:23.265Z,47.90
2024-01-15T20:40:09.400Z,45.80
2024-01-15T20:42:55.084Z,45.30
2024-01-15T20:45:41.190Z,46.80
2024-01-15T20:48:28.524Z,47.50
2024-01-15T20:51:14.263Z,48.10
2024-01-15T20:53:59.525Z,47.60
2024-01-15T20:56:45.498Z,47.90
2024-01-15T20:59:31.181Z,48.20
2024-01-15T21:02:16.953Z,49.70
2024-01-15T21:05:03.821Z,49.70
2024-01-15T21:07:53.089Z,50.40
2024-01-15T21:10:38.509Z,50.50
2024-01-15T21:13:24.111Z,50.30
2024-01-15T21:16:09.647Z,50.70
2024-01-15T21:18:55.610Z,49.70
2024-01-15T21:21:41.539Z,50.10
2024-01-15T21:24:29.013Z,50.70
2024-01-15T21:27:14.608Z,51.50
2024-01-15T21:30:00.509Z,51.60
2024-01-15T21:32:47.982Z,51.40
2024-01-15T21:35:33.807Z,51.40
2024-01-15T21:38:19.313Z,51.70
2024-01-15T21:41:05.333Z,51.90
2024-01-15T21:43:50.750Z,52.00
2024-01-15T21:46:37.136Z,51.90
2024-01-15T21:49:22.677Z,51.30
2024-01-15T21:52:11.321Z,51.70
2024-01-15T21:54:56.857Z,51.40
2024-01-15T21:57:42.330Z,51.40
2024-01-15T22:00:28.537Z,51.70
2024-01-15T22:03:14.087Z,51.30
2024-01-15T22:05:59.996Z,50.70
2024-01-15T22:08:49.965Z,51.40
2024-01-15T22:11:36.528Z,51.70
2024-01-15T22:14:23.497Z,52.30
2024-01-15T22:17:09.096Z,52.30
2024-01-15T22:19:54.818Z,51.60
2024-01-15T22:22:40.605Z,52.00
2024-01-15T22:25:26.225Z,51.60
2024-01-15T22:28:11.564Z,51.70
2024-01-15T22:30:57.187Z,52.30
2024-01-15T22:33:43.514Z,51.50
2024-01-15T22:36:28.910Z,52.80
2024-01-15T22:39:14.981Z,53.80
2024-01-15T22:42:03.632Z,53.10
2024-01-15T22:44:49.452Z,53.70
2024-01-15T22:47:35.011Z,52.80
2024-01-15T22:50:20.680Z,52.10
2024-01-15T22:53:06.120Z,52.70
2024-01-15T22:55:53.910Z,52.30
2024-01-15T22:58:39.222Z,52.70
2024-01-15T23:01:24.858Z,53.40
2024-01-15T23:04:10.418Z,53.80
2024-01-15T23:06:56.206Z,53.70
2024-01-15T23:09:42.785Z,53.40
2024-01-15T23:12:28.505Z,53.40
2024-01-15T23:15:14.361Z,53.30
2024-01-15T23:17:59.824Z,54.20
2024-01-15T23:20:46.108Z,54.40
2024-01-15T23:23:31.945Z,54.60
2024-01-15T23:26:18.853Z,55.00
2024-01-15T23:29:06.058Z,56.10
2024-01-15T23:31:51.702Z,56.90
2024-01-15T23:34:37.528Z,57.50
2024-01-15T23:37:23.712Z,58.20
2024-01-15T23:40:12.252Z,57.30
2024-01-15T23:42:59.192Z,57.80
2024-01-15T23:45:46.362Z,58.00
2024-01-15T23:48:32.325Z,57.40
2024-01-15T23:51:19.531Z,57.50
2024-01-15T23:54:05.235Z,58.20
2024-01-15T23:56:50.963Z,58.80
2024-01-15T23:59:38.979Z,59.00
